KMIC/MIC METAR and TAF weather

Enter ICAO airport designator
Station Type Date Time Source
KMIC METAR 2020/04/07 07:53 UTC NOAA

KMIC 070753Z AUTO 12006KT 5SM -RA BR OVC011 10/08 A2971 RMK AO2 LTG DSNT NE SLP063 P0000 T01000083


Station Type Date Time Source
KMIC Decoded METAR 2020/04/07 07:53 UTC NOAA

CRYSTAL AIRPORT, MN, United States (KMIC) 45-04N 093-21W 265M
Apr 07, 2020 - 03:53 AM EDT / 2020.04.07 0753 UTC
Wind: from the ESE (120 degrees) at 7 MPH (6 KT):0
Visibility: 5 mile(s):0
Sky conditions: overcast
Weather: light rain; mist; Lightning observed
Precipitation last hour: A trace
Temperature: 50.0 F (10.0 C)
Dew Point: 46.9 F (8.3 C)
Relative Humidity: 89%
Pressure (altimeter): 29.71 in. Hg (1006 hPa)
ob: KMIC 070753Z AUTO 12006KT 5SM -RA BR OVC011 10/08 A2971 RMK AO2 LTG DSNT NE SLP063 P0000 T01000083
cycle: 8

Station Type Date Time Source
KMIC TAF UTC NOAA

Error!

Example: see airport list